sensor_id;sensor_type;location;lat;lon;timestamp;pressure;altitude;pressure_sealevel;temperature;humidity
19831;BME280;10076;52.008;4.708;2023-01-28T00:00:23;103060.41;;;6.71;100.00
19831;BME280;10076;52.008;4.708;2023-01-28T00:02:49;103049.94;;;6.70;100.00
19831;BME280;10076;52.008;4.708;2023-01-28T00:05:15;103051.69;;;6.71;100.00
19831;BME280;10076;52.008;4.708;2023-01-28T00:07:40;103051.66;;;6.72;100.00
19831;BME280;10076;52.008;4.708;2023-01-28T00:10:06;103053.50;;;6.67;100.00
19831;BME280;10076;52.008;4.708;2023-01-28T00:12:31;103058.94;;;6.58;100.00
19831;BME280;10076;52.008;4.708;2023-01-28T00:14:57;103058.94;;;6.57;100.00
19831;BME280;10076;52.008;4.708;2023-01-28T00:17:22;103054.72;;;6.48;100.00
19831;BME280;10076;52.008;4.708;2023-01-28T00:19:47;103065.78;;;6.65;100.00
19831;BME280;10076;52.008;4.708;2023-01-28T00:22:13;103056.31;;;6.58;100.00
19831;BME280;10076;52.008;4.708;2023-01-28T00:24:39;103051.75;;;6.66;100.00
19831;BME280;10076;52.008;4.708;2023-01-28T00:27:04;103049.94;;;6.70;100.00
19831;BME280;10076;52.008;4.708;2023-01-28T00:29:30;103043.16;;;6.60;100.00
19831;BME280;10076;52.008;4.708;2023-01-28T00:31:56;103055.47;;;6.56;100.00
19831;BME280;10076;52.008;4.708;2023-01-28T00:34:21;103051.00;;;6.61;100.00
19831;BME280;10076;52.008;4.708;2023-01-28T00:36:47;103048.97;;;6.75;100.00
19831;BME280;10076;52.008;4.708;2023-01-28T00:39:25;103048.28;;;6.66;100.00
19831;BME280;10076;52.008;4.708;2023-01-28T00:41:52;103047.81;;;6.44;100.00
19831;BME280;10076;52.008;4.708;2023-01-28T00:44:18;103048.13;;;6.29;100.00
19831;BME280;10076;52.008;4.708;2023-01-28T00:46:44;103050.38;;;6.47;100.00
19831;BME280;10076;52.008;4.708;2023-01-28T00:49:09;103056.44;;;6.52;100.00
19831;BME280;10076;52.008;4.708;2023-01-28T00:51:35;103059.81;;;6.57;100.00
19831;BME280;10076;52.008;4.708;2023-01-28T00:54:01;103049.91;;;6.71;100.00
19831;BME280;10076;52.008;4.708;2023-01-28T00:56:26;103053.38;;;6.73;100.00
19831;BME280;10076;52.008;4.708;2023-01-28T00:58:51;103049.88;;;6.74;100.00
19831;BME280;10076;52.008;4.708;2023-01-28T01:01:22;103051.69;;;6.71;100.00
19831;BME280;10076;52.008;4.708;2023-01-28T01:03:48;103047.25;;;6.74;100.00
19831;BME280;10076;52.008;4.708;2023-01-28T01:06:28;103050.78;;;6.70;100.00
19831;BME280;10076;52.008;4.708;2023-01-28T01:08:54;103059.72;;;6.63;100.00
19831;BME280;10076;52.008;4.708;2023-01-28T01:11:19;103054.34;;;6.69;100.00
19831;BME280;10076;52.008;4.708;2023-01-28T01:13:56;103052.66;;;6.65;100.00
19831;BME280;10076;52.008;4.708;2023-01-28T01:16:24;103057.13;;;6.60;100.00
19831;BME280;10076;52.008;4.708;2023-01-28T01:18:51;103055.34;;;6.62;100.00
19831;BME280;10076;52.008;4.708;2023-01-28T01:21:20;103047.72;;;6.50;100.00
19831;BME280;10076;52.008;4.708;2023-01-28T01:23:46;103050.91;;;6.66;100.00
19831;BME280;10076;52.008;4.708;2023-01-28T01:26:12;103057.84;;;6.68;100.00
19831;BME280;10076;52.008;4.708;2023-01-28T01:28:38;103056.13;;;6.67;100.00
19831;BME280;10076;52.008;4.708;2023-01-28T01:31:12;103053.34;;;6.75;100.00
19831;BME280;10076;52.008;4.708;2023-01-28T01:33:40;103053.38;;;6.73;100.00
19831;BME280;10076;52.008;4.708;2023-01-28T01:36:06;103045.41;;;6.76;100.00
19831;BME280;10076;52.008;4.708;2023-01-28T01:38:31;103046.63;;;6.60;100.00
19831;BME280;10076;52.008;4.708;2023-01-28T01:40:58;103049.22;;;6.63;100.00
19831;BME280;10076;52.008;4.708;2023-01-28T01:43:24;103044.81;;;6.64;100.00
19831;BME280;10076;52.008;4.708;2023-01-28T01:45:56;103049.22;;;6.62;100.00
19831;BME280;10076;52.008;4.708;2023-01-28T01:48:28;103055.28;;;6.65;100.00
19831;BME280;10076;52.008;4.708;2023-01-28T01:50:58;103051.06;;;6.58;100.00
19831;BME280;10076;52.008;4.708;2023-01-28T01:53:28;103051.84;;;6.62;100.00
19831;BME280;10076;52.008;4.708;2023-01-28T01:55:59;103049.47;;;6.48;100.00
19831;BME280;10076;52.008;4.708;2023-01-28T01:58:29;103045.84;;;6.55;100.00
19831;BME280;10076;52.008;4.708;2023-01-28T02:00:56;103043.84;;;6.69;100.00
19831;BME280;10076;52.008;4.708;2023-01-28T02:03:28;103047.41;;;6.65;100.00
19831;BME280;10076;52.008;4.708;2023-01-28T02:05:55;103049.25;;;6.60;100.00
19831;BME280;10076;52.008;4.708;2023-01-28T02:08:21;103043.06;;;6.64;100.00
19831;BME280;10076;52.008;4.708;2023-01-28T02:13:15;103044.88;;;6.59;100.00
19831;BME280;10076;52.008;4.708;2023-01-28T02:15:43;103044.53;;;6.79;100.00
19831;BME280;10076;52.008;4.708;2023-01-28T02:18:10;103043.81;;;6.71;100.00
19831;BME280;10076;52.008;4.708;2023-01-28T02:21:08;103049.06;;;6.71;100.00
19831;BME280;10076;52.008;4.708;2023-01-28T02:24:06;103043.91;;;6.65;100.00
19831;BME280;10076;52.008;4.708;2023-01-28T02:30:09;103065.69;;;6.70;100.00
19831;BME280;10076;52.008;4.708;2023-01-28T02:32:53;103066.75;;;6.61;100.00
19831;BME280;10076;52.008;4.708;2023-01-28T02:38:06;103075.34;;;6.68;100.00
19831;BME280;10076;52.008;4.708;2023-01-28T02:40:38;103072.94;;;6.57;100.00
19831;BME280;10076;52.008;4.708;2023-01-28T02:43:46;103080.53;;;6.72;100.00
19831;BME280;10076;52.008;4.708;2023-01-28T02:46:20;103075.09;;;6.81;100.00
19831;BME280;10076;52.008;4.708;2023-01-28T02:49:08;103067.59;;;6.63;100.00
19831;BME280;10076;52.008;4.708;2023-01-28T02:54:41;103059.06;;;6.52;100.00
19831;BME280;10076;52.008;4.708;2023-01-28T02:57:29;103056.59;;;6.43;100.00
19831;BME280;10076;52.008;4.708;2023-01-28T03:00:18;103054.19;;;6.31;100.00
19831;BME280;10076;52.008;4.708;2023-01-28T03:05:57;103059.28;;;6.40;100.00
19831;BME280;10076;52.008;4.708;2023-01-28T03:08:44;103059.13;;;6.48;100.00
19831;BME280;10076;52.008;4.708;2023-01-28T03:11:35;103062.59;;;6.48;100.00
19831;BME280;10076;52.008;4.708;2023-01-28T03:14:21;103061.84;;;6.43;100.00
19831;BME280;10076;52.008;4.708;2023-01-28T03:17:12;103066.38;;;6.34;100.00
19831;BME280;10076;52.008;4.708;2023-01-28T03:19:57;103064.53;;;6.39;100.00
19831;BME280;10076;52.008;4.708;2023-01-28T03:22:41;103071.41;;;6.46;100.00
19831;BME280;10076;52.008;4.708;2023-01-28T03:25:28;103067.19;;;6.37;100.00
19831;BME280;10076;52.008;4.708;2023-01-28T03:28:16;103069.03;;;6.32;100.00
19831;BME280;10076;52.008;4.708;2023-01-28T03:31:06;103066.13;;;6.47;100.00
19831;BME280;10076;52.008;4.708;2023-01-28T03:33:52;103073.31;;;6.36;100.00
19831;BME280;10076;52.008;4.708;2023-01-28T03:36:37;103062.13;;;6.28;100.00
19831;BME280;10076;52.008;4.708;2023-01-28T03:39:11;103064.75;;;6.28;100.00
19831;BME280;10076;52.008;4.708;2023-01-28T03:41:37;103067.97;;;6.42;100.00
19831;BME280;10076;52.008;4.708;2023-01-28T03:44:02;103060.09;;;6.44;100.00
19831;BME280;10076;52.008;4.708;2023-01-28T03:46:46;103061.84;;;6.43;100.00
19831;BME280;10076;52.008;4.708;2023-01-28T03:49:12;103061.84;;;6.43;100.00
19831;BME280;10076;52.008;4.708;2023-01-28T03:51:38;103055.72;;;6.43;100.00
19831;BME280;10076;52.008;4.708;2023-01-28T03:54:03;103055.81;;;6.38;100.00
19831;BME280;10076;52.008;4.708;2023-01-28T03:56:28;103059.53;;;6.25;100.00
19831;BME280;10076;52.008;4.708;2023-01-28T03:58:56;103057.69;;;6.30;100.00
19831;BME280;10076;52.008;4.708;2023-01-28T04:01:21;103082.53;;;6.12;100.00
19831;BME280;10076;52.008;4.708;2023-01-28T04:03:47;103076.94;;;6.31;100.00
19831;BME280;10076;52.008;4.708;2023-01-28T04:06:12;103084.66;;;6.38;100.00
19831;BME280;10076;52.008;4.708;2023-01-28T04:08:37;103092.00;;;6.18;100.00
19831;BME280;10076;52.008;4.708;2023-01-28T04:11:03;103094.38;;;6.33;100.00
19831;BME280;10076;52.008;4.708;2023-01-28T04:13:43;103093.59;;;6.28;100.00
19831;BME280;10076;52.008;4.708;2023-01-28T04:16:12;103102.28;;;6.30;100.00
19831;BME280;10076;52.008;4.708;2023-01-28T04:18:38;103088.25;;;6.34;100.00
19831;BME280;10076;52.008;4.708;2023-01-28T04:21:04;103091.75;;;6.33;100.00
19831;BME280;10076;52.008;4.708;2023-01-28T04:23:29;103104.00;;;6.33;100.00
19831;BME280;10076;52.008;4.708;2023-01-28T04:25:55;103099.34;;;6.48;100.00
19831;BME280;10076;52.008;4.708;2023-01-28T04:28:20;103101.25;;;6.40;100.00
19831;BME280;10076;52.008;4.708;2023-01-28T04:30:45;103102.03;;;6.45;100.00
19831;BME280;10076;52.008;4.708;2023-01-28T04:33:11;103106.50;;;6.39;100.00
19831;BME280;10076;52.008;4.708;2023-01-28T04:35:36;103105.66;;;6.38;100.00
19831;BME280;10076;52.008;4.708;2023-01-28T04:38:01;103099.50;;;6.41;100.00
19831;BME280;10076;52.008;4.708;2023-01-28T04:40:26;103093.38;;;6.39;100.00
19831;BME280;10076;52.008;4.708;2023-01-28T04:42:56;103098.78;;;6.31;100.00
19831;BME280;10076;52.008;4.708;2023-01-28T04:45:21;103094.75;;;6.11;100.00
19831;BME280;10076;52.008;4.708;2023-01-28T04:47:47;103090.25;;;6.19;100.00
19831;BME280;10076;52.008;4.708;2023-01-28T04:50:12;103079.50;;;6.35;100.00
19831;BME280;10076;52.008;4.708;2023-01-28T04:52:38;103075.19;;;6.30;100.00
19831;BME280;10076;52.008;4.708;2023-01-28T04:55:03;103072.50;;;6.34;100.00
19831;BME280;10076;52.008;4.708;2023-01-28T04:57:29;103077.72;;;6.36;100.00
19831;BME280;10076;52.008;4.708;2023-01-28T04:59:54;103088.34;;;6.28;100.00
19831;BME280;10076;52.008;4.708;2023-01-28T05:02:20;103085.72;;;6.27;100.00
19831;BME280;10076;52.008;4.708;2023-01-28T05:04:45;103082.47;;;6.15;100.00
19831;BME280;10076;52.008;4.708;2023-01-28T05:07:11;103083.53;;;6.02;100.00
19831;BME280;10076;52.008;4.708;2023-01-28T05:09:36;103085.28;;;6.03;100.00
19831;BME280;10076;52.008;4.708;2023-01-28T05:12:02;103093.75;;;6.19;100.00
19831;BME280;10076;52.008;4.708;2023-01-28T05:14:27;103100.06;;;6.08;100.00
19831;BME280;10076;52.008;4.708;2023-01-28T05:16:52;103098.56;;;5.92;100.00
19831;BME280;10076;52.008;4.708;2023-01-28T05:19:18;103095.84;;;6.00;100.00
19831;BME280;10076;52.008;4.708;2023-01-28T05:21:43;103090.56;;;6.01;100.00
19831;BME280;10076;52.008;4.708;2023-01-28T05:24:09;103089.09;;;5.85;100.00
19831;BME280;10076;52.008;4.708;2023-01-28T05:26:34;103089.13;;;5.82;100.00
19831;BME280;10076;52.008;4.708;2023-01-28T05:28:59;103097.47;;;6.05;100.00
19831;BME280;10076;52.008;4.708;2023-01-28T05:31:25;103089.75;;;5.98;100.00
19831;BME280;10076;52.008;4.708;2023-01-28T05:33:50;103086.09;;;6.06;100.00
19831;BME280;10076;52.008;4.708;2023-01-28T05:36:17;103086.97;;;6.07;100.00
19831;BME280;10076;52.008;4.708;2023-01-28T05:38:42;103084.28;;;6.11;100.00
19831;BME280;10076;52.008;4.708;2023-01-28T05:41:07;103086.75;;;6.20;100.00
19831;BME280;10076;52.008;4.708;2023-01-28T05:43:33;103084.88;;;6.26;100.00
19831;BME280;10076;52.008;4.708;2023-01-28T05:45:58;103084.94;;;6.23;100.00
19831;BME280;10076;52.008;4.708;2023-01-28T05:48:23;103085.06;;;6.18;100.00
19831;BME280;10076;52.008;4.708;2023-01-28T05:50:49;103082.44;;;6.18;100.00
19831;BME280;10076;52.008;4.708;2023-01-28T05:53:14;103080.72;;;6.14;100.00
19831;BME280;10076;52.008;4.708;2023-01-28T05:55:39;103091.13;;;6.19;100.00
19831;BME280;10076;52.008;4.708;2023-01-28T05:58:05;103082.28;;;6.25;100.00
19831;BME280;10076;52.008;4.708;2023-01-28T06:00:30;103085.94;;;6.17;100.00
19831;BME280;10076;52.008;4.708;2023-01-28T06:02:55;103085.19;;;6.09;100.00
19831;BME280;10076;52.008;4.708;2023-01-28T06:05:21;103090.22;;;6.20;100.00
19831;BME280;10076;52.008;4.708;2023-01-28T06:07:47;103092.91;;;6.18;100.00
19831;BME280;10076;52.008;4.708;2023-01-28T06:10:12;103091.25;;;6.12;100.00
19831;BME280;10076;52.008;4.708;2023-01-28T06:12:38;103089.66;;;6.04;100.00
19831;BME280;10076;52.008;4.708;2023-01-28T06:15:04;103091.38;;;6.05;100.00
19831;BME280;10076;52.008;4.708;2023-01-28T06:17:29;103094.69;;;6.16;100.00
19831;BME280;10076;52.008;4.708;2023-01-28T06:19:54;103082.31;;;6.22;100.00
19831;BME280;10076;52.008;4.708;2023-01-28T06:22:20;103083.09;;;6.28;100.00
19831;BME280;10076;52.008;4.708;2023-01-28T06:24:45;103087.78;;;6.10;100.00
19831;BME280;10076;52.008;4.708;2023-01-28T06:27:11;103089.66;;;6.04;100.00
19831;BME280;10076;52.008;4.708;2023-01-28T06:29:36;103104.25;;;6.18;100.00
19831;BME280;10076;52.008;4.708;2023-01-28T06:32:01;103108.75;;;6.12;100.00
19831;BME280;10076;52.008;4.708;2023-01-28T06:34:27;103107.97;;;6.05;100.00
19831;BME280;10076;52.008;4.708;2023-01-28T06:36:52;103107.94;;;6.07;100.00
19831;BME280;10076;52.008;4.708;2023-01-28T06:39:19;103107.31;;;5.93;100.00
19831;BME280;10076;52.008;4.708;2023-01-28T06:41:46;103106.34;;;6.00;100.00
19831;BME280;10076;52.008;4.708;2023-01-28T06:44:11;103111.38;;;6.10;100.00
19831;BME280;10076;52.008;4.708;2023-01-28T06:46:36;103102.69;;;6.07;100.00
19831;BME280;10076;52.008;4.708;2023-01-28T06:49:01;103109.53;;;6.17;100.00
19831;BME280;10076;52.008;4.708;2023-01-28T06:51:27;103117.31;;;6.22;100.00
19831;BME280;10076;52.008;4.708;2023-01-28T06:53:52;103112.88;;;6.24;100.00
19831;BME280;10076;52.008;4.708;2023-01-28T06:56:17;103121.59;;;6.26;100.00
19831;BME280;10076;52.008;4.708;2023-01-28T06:58:43;103117.31;;;6.21;100.00
19831;BME280;10076;52.008;4.708;2023-01-28T07:01:08;103122.66;;;6.17;100.00
19831;BME280;10076;52.008;4.708;2023-01-28T07:03:35;103105.22;;;6.14;100.00
19831;BME280;10076;52.008;4.708;2023-01-28T07:06:00;103110.53;;;6.10;100.00
19831;BME280;10076;52.008;4.708;2023-01-28T07:08:26;103120.28;;;6.00;100.00
19831;BME280;10076;52.008;4.708;2023-01-28T07:10:51;103118.94;;;5.77;100.00
19831;BME280;10076;52.008;4.708;2023-01-28T07:13:16;103112.50;;;5.96;100.00
19831;BME280;10076;52.008;4.708;2023-01-28T07:15:41;103113.38;;;5.96;100.00
19831;BME280;10076;52.008;4.708;2023-01-28T07:18:07;103118.59;;;5.98;100.00
19831;BME280;10076;52.008;4.708;2023-01-28T07:20:32;103127.41;;;5.92;100.00
19831;BME280;10076;52.008;4.708;2023-01-28T07:22:57;103127.53;;;5.85;100.00
19831;BME280;10076;52.008;4.708;2023-01-28T07:25:23;103120.53;;;5.84;100.00
19831;BME280;10076;52.008;4.708;2023-01-28T07:27:52;103129.94;;;5.98;100.00
19831;BME280;10076;52.008;4.708;2023-01-28T07:30:19;103134.28;;;5.99;100.00
19831;BME280;10076;52.008;4.708;2023-01-28T07:32:45;103134.56;;;5.83;100.00
19831;BME280;10076;52.008;4.708;2023-01-28T07:35:11;103134.38;;;5.93;100.00
19831;BME280;10076;52.008;4.708;2023-01-28T07:37:37;103129.06;;;5.98;100.00
19831;BME280;10076;52.008;4.708;2023-01-28T07:40:03;103130.03;;;5.94;100.00
19831;BME280;10076;52.008;4.708;2023-01-28T07:42:28;103131.72;;;5.96;100.00
19831;BME280;10076;52.008;4.708;2023-01-28T07:44:54;103125.59;;;5.96;100.00
19831;BME280;10076;52.008;4.708;2023-01-28T07:47:19;103122.22;;;5.89;100.00
19831;BME280;10076;52.008;4.708;2023-01-28T07:49:45;103113.63;;;5.80;100.00
19831;BME280;10076;52.008;4.708;2023-01-28T07:52:10;103122.56;;;5.64;100.00
19831;BME280;10076;52.008;4.708;2023-01-28T07:54:35;103140.31;;;5.46;100.00
19831;BME280;10076;52.008;4.708;2023-01-28T07:57:01;103145.59;;;5.41;100.00
19831;BME280;10076;52.008;4.708;2023-01-28T07:59:26;103132.59;;;5.32;100.00
19831;BME280;10076;52.008;4.708;2023-01-28T08:01:52;103133.44;;;5.37;100.00
19831;BME280;10076;52.008;4.708;2023-01-28T08:04:18;103127.47;;;5.25;100.00
19831;BME280;10076;52.008;4.708;2023-01-28T08:06:43;103134.31;;;5.35;100.00
19831;BME280;10076;52.008;4.708;2023-01-28T08:09:09;103146.50;;;5.39;100.00
19831;BME280;10076;52.008;4.708;2023-01-28T08:11:36;103142.13;;;5.39;100.00
19831;BME280;10076;52.008;4.708;2023-01-28T08:14:02;103157.69;;;5.51;100.00
19831;BME280;10076;52.008;4.708;2023-01-28T08:16:27;103141.06;;;5.53;100.00
19831;BME280;10076;52.008;4.708;2023-01-28T08:18:53;103142.66;;;5.63;100.00
19831;BME280;10076;52.008;4.708;2023-01-28T08:21:18;103144.31;;;5.72;100.00
19831;BME280;10076;52.008;4.708;2023-01-28T08:23:44;103145.13;;;5.77;100.00
19831;BME280;10076;52.008;4.708;2023-01-28T08:26:09;103154.72;;;5.78;100.00
19831;BME280;10076;52.008;4.708;2023-01-28T08:28:34;103163.44;;;5.80;100.00
19831;BME280;10076;52.008;4.708;2023-01-28T08:31:00;103154.44;;;5.97;100.00
19831;BME280;10076;52.008;4.708;2023-01-28T08:33:26;103158.53;;;6.15;100.00
19831;BME280;10076;52.008;4.708;2023-01-28T08:35:51;103163.84;;;6.12;100.00
19831;BME280;10076;52.008;4.708;2023-01-28T08:38:16;103182.09;;;6.18;100.00
19831;BME280;10076;52.008;4.708;2023-01-28T08:40:42;103179.38;;;6.23;100.00
19831;BME280;10076;52.008;4.708;2023-01-28T08:43:08;103182.81;;;6.28;100.00
19831;BME280;10076;52.008;4.708;2023-01-28T08:45:33;103190.00;;;6.15;100.00
19831;BME280;10076;52.008;4.708;2023-01-28T08:48:01;103193.78;;;5.96;100.00
19831;BME280;10076;52.008;4.708;2023-01-28T08:50:29;103187.94;;;5.77;100.00
19831;BME280;10076;52.008;4.708;2023-01-28T08:52:58;103190.78;;;5.58;100.00
19831;BME280;10076;52.008;4.708;2023-01-28T08:55:24;103185.47;;;5.64;100.00
19831;BME280;10076;52.008;4.708;2023-01-28T08:57:50;103192.09;;;5.92;100.00
19831;BME280;10076;52.008;4.708;2023-01-28T09:00:15;103184.53;;;6.29;100.00
19831;BME280;10076;52.008;4.708;2023-01-28T09:02:41;103189.16;;;7.12;100.00
19831;BME280;10076;52.008;4.708;2023-01-28T09:05:06;103182.50;;;8.18;100.00
19831;BME280;10076;52.008;4.708;2023-01-28T09:07:36;103182.22;;;8.96;100.00
19831;BME280;10076;52.008;4.708;2023-01-28T09:10:03;103187.22;;;9.66;100.00
19831;BME280;10076;52.008;4.708;2023-01-28T09:12:28;103181.47;;;10.37;100.00
19831;BME280;10076;52.008;4.708;2023-01-28T09:14:54;103189.63;;;10.04;100.00
19831;BME280;10076;52.008;4.708;2023-01-28T09:17:20;103195.50;;;9.54;100.00
19831;BME280;10076;52.008;4.708;2023-01-28T09:19:45;103202.97;;;9.08;100.00
19831;BME280;10076;52.008;4.708;2023-01-28T09:22:11;103207.13;;;8.85;100.00
19831;BME280;10076;52.008;4.708;2023-01-28T09:24:36;103212.22;;;8.58;100.00
19831;BME280;10076;52.008;4.708;2023-01-28T09:27:02;103212.44;;;8.84;100.00
19831;BME280;10076;52.008;4.708;2023-01-28T09:29:27;103220.75;;;9.32;100.00
19831;BME280;10076;52.008;4.708;2023-01-28T09:31:52;103228.16;;;9.20;100.00
19831;BME280;10076;52.008;4.708;2023-01-28T09:34:18;103225.31;;;8.94;100.00
19831;BME280;10076;52.008;4.708;2023-01-28T09:36:43;103226.53;;;8.46;100.00
19831;BME280;10076;52.008;4.708;2023-01-28T09:39:08;103228.69;;;8.31;100.00
19831;BME280;10076;52.008;4.708;2023-01-28T09:47:02;103231.47;;;8.25;100.00
19831;BME280;10076;52.008;4.708;2023-01-28T09:49:49;103218.28;;;8.61;100.00
19831;BME280;10076;52.008;4.708;2023-01-28T09:52:18;103223.09;;;8.79;100.00
19831;BME280;10076;52.008;4.708;2023-01-28T09:54:55;103229.50;;;8.69;100.00
19831;BME280;10076;52.008;4.708;2023-01-28T09:57:25;103227.66;;;8.71;100.00
19831;BME280;10076;52.008;4.708;2023-01-28T09:59:52;103227.41;;;9.13;100.00
19831;BME280;10076;52.008;4.708;2023-01-28T10:02:40;103228.19;;;9.79;100.00
19831;BME280;10076;52.008;4.708;2023-01-28T10:08:18;103242.50;;;10.28;100.00
19831;BME280;10076;52.008;4.708;2023-01-28T10:11:03;103252.94;;;10.86;100.00
19831;BME280;10076;52.008;4.708;2023-01-28T10:14:01;103253.78;;;10.86;100.00
19831;BME280;10076;52.008;4.708;2023-01-28T10:16:43;103245.72;;;11.15;100.00
19831;BME280;10076;52.008;4.708;2023-01-28T10:19:23;103240.75;;;12.02;100.00
19831;BME280;10076;52.008;4.708;2023-01-28T10:22:12;103241.28;;;13.16;100.00
19831;BME280;10076;52.008;4.708;2023-01-28T10:24:44;103242.16;;;14.30;100.00
19831;BME280;10076;52.008;4.708;2023-01-28T10:27:15;103239.53;;;15.16;100.00
19831;BME280;10076;52.008;4.708;2023-01-28T10:29:41;103242.38;;;15.47;100.00
19831;BME280;10076;52.008;4.708;2023-01-28T10:32:27;103233.97;;;16.02;100.00
19831;BME280;10076;52.008;4.708;2023-01-28T10:34:54;103244.19;;;16.86;91.50
19831;BME280;10076;52.008;4.708;2023-01-28T10:37:20;103244.09;;;17.60;87.86
19831;BME280;10076;52.008;4.708;2023-01-28T10:39:45;103237.41;;;18.75;81.08
19831;BME280;10076;52.008;4.708;2023-01-28T10:42:32;103236.13;;;20.78;70.71
19831;BME280;10076;52.008;4.708;2023-01-28T10:45:01;103243.34;;;22.12;64.47
19831;BME280;10076;52.008;4.708;2023-01-28T10:47:45;103239.75;;;22.86;59.21
19831;BME280;10076;52.008;4.708;2023-01-28T10:50:16;103246.19;;;23.46;54.57
19831;BME280;10076;52.008;4.708;2023-01-28T10:52:56;103235.75;;;24.22;54.79
19831;BME280;10076;52.008;4.708;2023-01-28T10:55:27;103236.75;;;25.16;50.10
19831;BME280;10076;52.008;4.708;2023-01-28T10:57:54;103232.81;;;25.76;48.05
19831;BME280;10076;52.008;4.708;2023-01-28T11:00:29;103225.63;;;25.93;47.83
19831;BME280;10076;52.008;4.708;2023-01-28T11:02:56;103214.47;;;26.85;44.23
19831;BME280;10076;52.008;4.708;2023-01-28T11:05:27;103196.72;;;27.84;43.96
19831;BME280;10076;52.008;4.708;2023-01-28T11:08:13;103192.66;;;28.37;41.59
19831;BME280;10076;52.008;4.708;2023-01-28T11:10:40;103184.75;;;28.67;41.75
19831;BME280;10076;52.008;4.708;2023-01-28T11:13:14;103179.84;;;28.94;38.96
19831;BME280;10076;52.008;4.708;2023-01-28T11:15:48;103165.91;;;29.05;39.05
19831;BME280;10076;52.008;4.708;2023-01-28T11:18:22;103148.13;;;28.22;38.47
19831;BME280;10076;52.008;4.708;2023-01-28T11:20:55;103157.53;;;27.94;38.44
19831;BME280;10076;52.008;4.708;2023-01-28T11:23:27;103167.44;;;28.84;37.59
19831;BME280;10076;52.008;4.708;2023-01-28T11:26:16;103141.94;;;27.96;37.73
19831;BME280;10076;52.008;4.708;2023-01-28T11:28:43;103138.84;;;26.47;38.94
19831;BME280;10076;52.008;4.708;2023-01-28T11:31:11;103143.41;;;26.64;39.20
19831;BME280;10076;52.008;4.708;2023-01-28T11:33:43;103130.88;;;25.84;39.29
19831;BME280;10076;52.008;4.708;2023-01-28T11:36:21;103119.72;;;25.60;39.28
19831;BME280;10076;52.008;4.708;2023-01-28T11:41:34;103102.47;;;24.60;40.75
19831;BME280;10076;52.008;4.708;2023-01-28T11:44:09;103108.66;;;25.81;41.20
19831;BME280;10076;52.008;4.708;2023-01-28T12:00:26;103138.38;;;30.31;35.85
19831;BME280;10076;52.008;4.708;2023-01-28T12:03:11;103154.72;;;30.61;36.41
19831;BME280;10076;52.008;4.708;2023-01-28T12:11:24;103142.78;;;31.21;33.92
19831;BME280;10076;52.008;4.708;2023-01-28T12:14:14;103138.94;;;30.49;35.04
19831;BME280;10076;52.008;4.708;2023-01-28T12:16:52;103154.81;;;31.27;33.61
19831;BME280;10076;52.008;4.708;2023-01-28T12:25:09;103172.28;;;31.69;31.90
19831;BME280;10076;52.008;4.708;2023-01-28T12:27:43;103179.66;;;31.17;31.65
19831;BME280;10076;52.008;4.708;2023-01-28T12:35:30;103160.59;;;29.90;32.90
19831;BME280;10076;52.008;4.708;2023-01-28T12:38:15;103151.50;;;30.27;32.58
19831;BME280;10076;52.008;4.708;2023-01-28T12:43:32;103146.69;;;32.20;32.22
19831;BME280;10076;52.008;4.708;2023-01-28T12:46:04;103138.28;;;32.84;30.95
19831;BME280;10076;52.008;4.708;2023-01-28T12:48:36;103128.13;;;32.78;31.20
19831;BME280;10076;52.008;4.708;2023-01-28T12:53:45;103104.56;;;33.71;30.20
19831;BME280;10076;52.008;4.708;2023-01-28T12:56:16;103098.75;;;33.13;29.82
19831;BME280;10076;52.008;4.708;2023-01-28T12:58:48;103083.97;;;32.60;30.36
19831;BME280;10076;52.008;4.708;2023-01-28T13:01:20;103069.16;;;32.75;30.31
19831;BME280;10076;52.008;4.708;2023-01-28T13:06:23;103062.78;;;31.70;30.90
19831;BME280;10076;52.008;4.708;2023-01-28T13:08:57;103057.13;;;30.26;32.24
19831;BME280;10076;52.008;4.708;2023-01-28T13:11:31;103058.63;;;29.76;31.44
19831;BME280;10076;52.008;4.708;2023-01-28T13:13:58;103058.56;;;30.14;31.64
19831;BME280;10076;52.008;4.708;2023-01-28T13:16:23;103074.25;;;29.52;31.96
19831;BME280;10076;52.008;4.708;2023-01-28T13:18:49;103078.00;;;30.11;31.89
19831;BME280;10076;52.008;4.708;2023-01-28T13:23:47;103077.97;;;31.44;31.12
19831;BME280;10076;52.008;4.708;2023-01-28T13:31:12;103068.50;;;30.30;30.62
19831;BME280;10076;52.008;4.708;2023-01-28T13:36:30;103048.38;;;28.70;31.62
19831;BME280;10076;52.008;4.708;2023-01-28T13:41:46;103047.22;;;28.41;33.20
19831;BME280;10076;52.008;4.708;2023-01-28T13:46:51;103060.25;;;29.63;32.84
19831;BME280;10076;52.008;4.708;2023-01-28T13:49:21;103063.00;;;29.55;31.52
19831;BME280;10076;52.008;4.708;2023-01-28T13:51:57;103070.38;;;30.29;31.52
19831;BME280;10076;52.008;4.708;2023-01-28T13:54:25;103066.59;;;30.89;31.43
19831;BME280;10076;52.008;4.708;2023-01-28T14:09:59;103065.56;;;28.31;31.90
19831;BME280;10076;52.008;4.708;2023-01-28T14:15:36;103073.88;;;28.93;33.06
19831;BME280;10076;52.008;4.708;2023-01-28T14:18:24;103086.88;;;29.29;31.09
19831;BME280;10076;52.008;4.708;2023-01-28T14:20:51;103085.16;;;29.44;31.82
19831;BME280;10076;52.008;4.708;2023-01-28T14:23:19;103086.75;;;29.23;31.95
19831;BME280;10076;52.008;4.708;2023-01-28T14:31:07;103078.59;;;29.15;32.16
19831;BME280;10076;52.008;4.708;2023-01-28T14:33:35;103079.28;;;29.17;32.06
19831;BME280;10076;52.008;4.708;2023-01-28T14:36:02;103068.13;;;29.50;32.12
19831;BME280;10076;52.008;4.708;2023-01-28T14:38:28;103069.38;;;29.70;31.46
19831;BME280;10076;52.008;4.708;2023-01-28T14:40:57;103054.63;;;29.10;31.98
19831;BME280;10076;52.008;4.708;2023-01-28T14:43:25;103042.94;;;28.70;32.21